Hauptseite
METAR-TAF:

METAR-TAF

Flughäfen :

Heeresflugplatz Celle

Celle, Deutschland

Breite: 52-36N, Länge: 010-01E, Höhe: 39 m

Beobachtung

Neuester Wetterbericht von vor 53 Minuten, um 02:20 UTC
Wind 8 kt aus Ost/Nordost
Temperatur 2°C
Luftfeuchtigkeit 87%
Luftdruck 1035 hPa
Sichtweite 10 km oder mehr

METAR: ETHC 170220Z 07008KT 9999 02/M00 Q1035 BLU+

Zeit: 04:13 (03:13 UTC)

Prognose

Neuester Wetterbericht von vor 16 Stunden und 13 Minuten, um 11:00 UTC
Gültige Prognose vom 16 um 09 UTC bis 16 um 18 UTC
Wind 7 kt aus Ost
Sichtweite: 5000 m
Leicht bewölkt in der Höhe von 30000 ft
feuchter Dunst
Übergehend zu
vom 16 um 09 UTC bis 16 um 11 UTC
Wind 10 kt aus Ost
Sichtweite: 1120 m
Aufgelockert bewölkt in der Höhe von 30000 ft

TAF: ETHC 161100Z 1609/1618 09007KT 5000 BR FEW300 BECMG 1609/1611 10010KT 9999 NSW SCT300 CANCEL 1120

Wetterbeobachtungen und Prognosen von mehr als 4000 Flughäfen (METAR und TAF Bericht).

Die verfügbaren Stationen werden durch gelbe und rote Markierungen auf der Karte dargestellt.

Führen Sie die Maus auf sie, um den Namen der Station zu sehen.

Darauf klicken, um die Beobachtung von Wetterbeobachtungen und Prognosen zu sehen.

Um die Karte zu ändern : klicken Sie auf den grünen Tasten mit einem schwarzen Kreuz Zum Vergrößern, auf den grünen Button mit einem Gedankenstrich zu verkleinern, oder auf die grünen Pfeile für benachbarte Karten.


METAR-TAF: